createdAt,value
2022-09-06T00:01:14.494Z,18.16
2022-09-06T00:03:43.053Z,18.50
2022-09-06T00:06:16.849Z,18.41
2022-09-06T00:08:47.365Z,18.14
2022-09-06T00:11:16.789Z,18.36
2022-09-06T00:13:46.152Z,18.36
2022-09-06T00:16:17.718Z,18.56
2022-09-06T00:18:46.999Z,18.48
2022-09-06T00:21:20.330Z,18.18
2022-09-06T00:23:48.514Z,18.09
2022-09-06T00:26:17.764Z,17.68
2022-09-06T00:28:46.519Z,18.13
2022-09-06T00:31:24.432Z,17.86
2022-09-06T00:33:53.486Z,17.75
2022-09-06T00:36:23.586Z,17.66
2022-09-06T00:38:52.209Z,17.84
2022-09-06T00:41:21.130Z,17.84
2022-09-06T00:43:49.636Z,18.02
2022-09-06T00:46:25.221Z,17.96
2022-09-06T00:49:06.604Z,17.75
2022-09-06T00:51:36.809Z,17.80
2022-09-06T00:54:07.903Z,17.94
2022-09-06T00:56:42.305Z,17.96
2022-09-06T00:59:11.244Z,18.03
2022-09-06T01:01:39.967Z,18.20
2022-09-06T01:04:09.015Z,18.26
2022-09-06T01:06:45.904Z,18.10
2022-09-06T01:09:53.924Z,18.08
2022-09-06T01:12:35.685Z,18.15
2022-09-06T01:15:29.214Z,18.33
2022-09-06T01:18:20.571Z,18.26
2022-09-06T01:21:07.207Z,18.23
2022-09-06T01:23:56.849Z,18.45
2022-09-06T01:26:49.244Z,18.39
2022-09-06T01:29:23.731Z,18.59
2022-09-06T01:32:04.913Z,18.40
2022-09-06T01:34:57.734Z,18.28
2022-09-06T01:37:27.265Z,18.33
2022-09-06T01:39:56.138Z,18.52
2022-09-06T01:42:29.469Z,18.42
2022-09-06T01:45:23.085Z,18.45
2022-09-06T01:48:03.527Z,18.65
2022-09-06T01:51:08.927Z,18.58
2022-09-06T01:54:02.559Z,18.53
2022-09-06T01:56:58.735Z,18.99
2022-09-06T01:59:38.879Z,18.61
2022-09-06T02:02:37.338Z,19.38
2022-09-06T02:05:16.005Z,19.34
2022-09-06T02:07:48.164Z,19.00
2022-09-06T02:10:46.659Z,19.60
2022-09-06T02:13:17.219Z,18.94
2022-09-06T02:15:53.645Z,19.51
2022-09-06T02:18:28.456Z,19.71
2022-09-06T02:21:00.052Z,19.26
2022-09-06T02:23:32.814Z,19.89
2022-09-06T02:26:10.929Z,19.80
2022-09-06T02:28:39.586Z,19.51
2022-09-06T02:31:24.840Z,20.14
2022-09-06T02:33:54.554Z,19.74
2022-09-06T02:36:23.364Z,20.02
2022-09-06T02:38:52.024Z,20.20
2022-09-06T02:41:24.127Z,20.04
2022-09-06T02:43:52.685Z,19.95
2022-09-06T02:46:21.423Z,19.85
2022-09-06T02:48:50.125Z,19.85
2022-09-06T02:51:18.724Z,20.56
2022-09-06T02:53:47.724Z,20.43
2022-09-06T02:56:16.205Z,20.80
2022-09-06T02:58:44.844Z,21.53
2022-09-06T03:01:13.547Z,21.86
2022-09-06T03:03:42.281Z,22.00
2022-09-06T03:06:10.924Z,22.92
2022-09-06T03:08:39.684Z,22.24
2022-09-06T03:11:08.474Z,22.74
2022-09-06T03:13:37.090Z,22.67
2022-09-06T03:16:05.622Z,22.83
2022-09-06T03:18:34.290Z,22.60
2022-09-06T03:21:03.259Z,23.27
2022-09-06T03:23:32.080Z,23.09
2022-09-06T03:26:00.689Z,23.70
2022-09-06T03:28:29.649Z,23.96
2022-09-06T03:30:58.268Z,24.28
2022-09-06T03:33:26.884Z,24.03
2022-09-06T03:35:58.635Z,24.47
2022-09-06T03:38:29.229Z,24.71
2022-09-06T03:40:58.430Z,25.22
2022-09-06T03:43:28.317Z,25.51
2022-09-06T03:45:58.785Z,25.86
2022-09-06T03:48:29.599Z,26.05
2022-09-06T03:50:59.866Z,26.04
2022-09-06T03:53:30.615Z,26.22
2022-09-06T03:56:00.169Z,26.58
2022-09-06T03:58:33.117Z,26.71
2022-09-06T04:01:09.907Z,26.91
2022-09-06T04:03:39.704Z,27.22
2022-09-06T04:06:09.506Z,26.95
2022-09-06T04:08:39.405Z,27.36
2022-09-06T04:11:08.339Z,27.46
2022-09-06T04:13:37.761Z,27.56
2022-09-06T04:16:07.360Z,27.54
2022-09-06T04:18:35.999Z,27.73
2022-09-06T04:21:06.044Z,28.25
2022-09-06T04:23:39.644Z,28.32
2022-09-06T04:26:08.844Z,28.24
2022-09-06T04:28:37.492Z,28.60
2022-09-06T04:31:06.716Z,28.64
2022-09-06T04:33:37.439Z,29.03
2022-09-06T04:36:09.793Z,29.15
2022-09-06T04:38:43.344Z,29.03
2022-09-06T04:41:14.155Z,28.92
2022-09-06T04:43:43.233Z,29.09
2022-09-06T04:46:14.605Z,29.91
2022-09-06T04:48:43.265Z,29.88
2022-09-06T04:51:11.849Z,30.04
2022-09-06T04:53:40.433Z,29.84
2022-09-06T04:56:09.129Z,30.35
2022-09-06T04:58:37.644Z,30.49
2022-09-06T05:01:06.254Z,30.38
2022-09-06T05:03:34.924Z,30.83
2022-09-06T05:06:08.527Z,30.59
2022-09-06T05:08:40.845Z,31.17
2022-09-06T05:11:11.871Z,30.82
2022-09-06T05:13:41.060Z,31.34
2022-09-06T05:16:10.628Z,31.42
2022-09-06T05:18:39.879Z,31.52
2022-09-06T05:21:08.689Z,31.68
2022-09-06T05:23:39.885Z,31.38
2022-09-06T05:26:08.685Z,31.49
2022-09-06T05:28:37.281Z,31.71
2022-09-06T05:31:27.394Z,31.63
2022-09-06T05:33:57.160Z,31.84
2022-09-06T05:36:26.950Z,31.85
2022-09-06T05:38:56.949Z,32.40
2022-09-06T05:41:26.445Z,32.31
2022-09-06T05:43:55.086Z,32.44
2022-09-06T05:46:23.595Z,32.84
2022-09-06T05:48:57.182Z,32.92
2022-09-06T05:51:25.824Z,33.09
2022-09-06T05:53:54.564Z,33.40
2022-09-06T05:56:23.595Z,33.31
2022-09-06T05:58:52.309Z,33.66
2022-09-06T06:01:23.513Z,33.54
2022-09-06T06:03:58.125Z,33.66
2022-09-06T06:06:28.981Z,33.80
2022-09-06T06:08:57.904Z,34.79
2022-09-06T06:11:27.530Z,34.37
2022-09-06T06:13:56.435Z,33.57
2022-09-06T06:16:24.960Z,33.55
2022-09-06T06:18:53.545Z,33.09
2022-09-06T06:21:25.585Z,33.36
2022-09-06T06:24:05.606Z,33.05
2022-09-06T06:26:36.863Z,33.45
2022-09-06T06:29:09.165Z,33.37
2022-09-06T06:31:40.015Z,33.46
2022-09-06T06:34:09.624Z,33.56
2022-09-06T06:36:38.604Z,33.37
2022-09-06T06:39:09.647Z,33.17
2022-09-06T06:41:38.936Z,33.50
2022-09-06T06:44:07.686Z,33.08
2022-09-06T06:46:38.606Z,33.91
2022-09-06T06:49:07.330Z,33.79
2022-09-06T06:51:40.530Z,34.07
2022-09-06T06:54:09.014Z,34.53
2022-09-06T06:56:40.200Z,35.08
2022-09-06T06:59:09.284Z,35.23
2022-09-06T07:01:39.031Z,35.46
2022-09-06T07:04:09.665Z,35.73
2022-09-06T07:12:30.141Z,36.00
2022-09-06T07:14:58.616Z,36.14
2022-09-06T07:17:27.090Z,36.46
2022-09-06T07:22:44.686Z,36.42
2022-09-06T07:25:19.070Z,36.59
2022-09-06T07:27:50.373Z,37.02
2022-09-06T07:30:20.806Z,37.08
2022-09-06T07:32:49.865Z,37.14
2022-09-06T07:35:18.415Z,37.22
2022-09-06T07:37:56.990Z,37.58
2022-09-06T07:40:26.766Z,37.58
2022-09-06T07:42:59.200Z,37.53
2022-09-06T07:45:28.210Z,37.89
2022-09-06T07:48:00.760Z,38.02
2022-09-06T07:53:16.532Z,38.03
2022-09-06T07:55:47.727Z,38.36
2022-09-06T07:58:16.372Z,38.25
2022-09-06T08:00:45.051Z,38.29
2022-09-06T08:03:14.465Z,38.48
2022-09-06T08:11:21.645Z,38.73
2022-09-06T08:13:57.650Z,38.87
2022-09-06T08:16:29.071Z,38.80
2022-09-06T08:19:00.165Z,38.83
2022-09-06T08:21:33.082Z,38.78
2022-09-06T08:24:08.209Z,38.97
2022-09-06T08:26:41.286Z,38.87
2022-09-06T08:29:11.273Z,39.22
2022-09-06T08:31:42.392Z,39.22
2022-09-06T08:34:13.535Z,39.44
2022-09-06T08:36:43.315Z,39.38
2022-09-06T08:39:12.880Z,39.55
2022-09-06T08:41:53.647Z,39.28
2022-09-06T08:47:22.072Z,39.74
2022-09-06T08:49:58.285Z,39.51
2022-09-06T08:53:13.102Z,39.45
2022-09-06T08:55:54.298Z,39.23
2022-09-06T08:58:40.856Z,39.25
2022-09-06T09:01:15.715Z,39.66
2022-09-06T09:03:45.804Z,39.50
2022-09-06T09:06:14.764Z,39.53
2022-09-06T09:09:05.165Z,39.82
2022-09-06T09:11:37.007Z,39.98
2022-09-06T09:14:23.704Z,40.10
2022-09-06T09:17:00.366Z,40.09
2022-09-06T09:19:32.645Z,40.32
2022-09-06T09:22:01.165Z,40.01
2022-09-06T09:24:29.787Z,40.33
2022-09-06T09:27:12.346Z,40.21
2022-09-06T09:32:51.565Z,40.78
2022-09-06T09:35:38.765Z,40.82
2022-09-06T09:38:21.812Z,40.74
2022-09-06T09:40:57.449Z,40.93
2022-09-06T09:44:00.032Z,40.98
2022-09-06T09:46:34.625Z,41.08
2022-09-06T09:49:13.328Z,41.05
2022-09-06T09:51:46.764Z,41.33
2022-09-06T09:54:30.997Z,41.40
2022-09-06T09:57:00.044Z,41.37
2022-09-06T09:59:44.475Z,41.44
2022-09-06T10:02:32.964Z,41.71
2022-09-06T10:05:25.800Z,42.01
2022-09-06T10:07:56.689Z,41.68
2022-09-06T10:10:31.736Z,41.91
2022-09-06T10:13:14.616Z,41.69
2022-09-06T10:15:44.546Z,41.99
2022-09-06T10:18:38.125Z,42.01
2022-09-06T10:21:14.266Z,42.10
2022-09-06T10:27:03.279Z,41.87
2022-09-06T10:29:42.045Z,42.08
2022-09-06T10:32:34.709Z,42.29
2022-09-06T10:35:27.884Z,42.05
2022-09-06T10:38:21.944Z,41.96
2022-09-06T10:41:21.274Z,42.04
2022-09-06T10:44:25.124Z,42.14
2022-09-06T10:47:06.020Z,42.05
2022-09-06T10:49:35.724Z,42.48
2022-09-06T10:52:07.711Z,42.24
2022-09-06T10:54:41.926Z,42.56
2022-09-06T11:00:15.493Z,42.88
2022-09-06T11:05:55.085Z,42.72
2022-09-06T11:08:50.364Z,42.92
2022-09-06T11:11:28.160Z,42.90
2022-09-06T11:13:56.849Z,43.17
2022-09-06T11:16:33.784Z,43.00
2022-09-06T11:19:11.249Z,43.25
2022-09-06T11:22:11.089Z,43.39
2022-09-06T11:25:19.080Z,43.08
2022-09-06T11:27:57.779Z,43.48
2022-09-06T11:30:28.794Z,43.10
2022-09-06T11:33:22.748Z,43.60
2022-09-06T11:35:52.012Z,43.26
2022-09-06T11:38:28.845Z,43.90
2022-09-06T11:41:02.894Z,43.48
2022-09-06T11:43:48.843Z,43.71
2022-09-06T11:46:35.968Z,43.89
2022-09-06T11:49:10.443Z,43.54
2022-09-06T11:51:42.080Z,43.64
2022-09-06T11:54:16.684Z,44.06
2022-09-06T11:56:56.804Z,44.61
2022-09-06T11:59:35.724Z,44.70
2022-09-06T12:02:24.265Z,45.01
2022-09-06T12:05:08.359Z,45.17
2022-09-06T12:07:59.245Z,45.42
2022-09-06T12:10:50.924Z,45.05
2022-09-06T12:13:42.874Z,45.31
2022-09-06T12:16:15.711Z,44.90
2022-09-06T12:18:50.124Z,44.72
2022-09-06T12:21:54.285Z,44.63
2022-09-06T12:24:39.888Z,44.88
2022-09-06T12:27:17.337Z,44.90
2022-09-06T12:29:57.324Z,44.86
2022-09-06T12:32:43.584Z,45.45
2022-09-06T12:38:07.993Z,45.62
2022-09-06T12:40:48.903Z,45.59
2022-09-06T12:43:19.249Z,45.72
2022-09-06T12:45:54.447Z,45.62
2022-09-06T12:48:36.239Z,45.63
2022-09-06T12:51:17.505Z,45.54
2022-09-06T12:54:00.434Z,45.45
2022-09-06T12:56:31.207Z,45.52
2022-09-06T12:59:15.355Z,45.67
2022-09-06T13:01:52.225Z,45.59
2022-09-06T13:04:29.003Z,46.01
2022-09-06T13:06:59.404Z,46.05
2022-09-06T13:09:31.049Z,46.47
2022-09-06T13:12:18.935Z,46.35
2022-09-06T13:14:47.730Z,46.35
2022-09-06T13:17:27.686Z,46.59
2022-09-06T13:19:56.484Z,46.50
2022-09-06T13:22:43.724Z,46.72
2022-09-06T13:25:30.290Z,46.68
2022-09-06T13:27:59.399Z,46.84
2022-09-06T13:30:49.855Z,46.66
2022-09-06T13:33:28.372Z,47.14
2022-09-06T13:36:10.404Z,47.20
2022-09-06T13:38:44.335Z,47.10
2022-09-06T13:41:39.884Z,46.96
2022-09-06T13:44:17.444Z,47.08
2022-09-06T13:46:46.199Z,47.45
2022-09-06T13:49:15.404Z,47.32
2022-09-06T13:51:44.341Z,47.32
2022-09-06T13:54:15.272Z,47.63
2022-09-06T13:56:47.208Z,47.50
2022-09-06T13:59:16.365Z,47.85
2022-09-06T14:01:47.724Z,47.90
2022-09-06T14:04:22.405Z,47.92
2022-09-06T14:06:51.084Z,47.98
2022-09-06T14:09:19.775Z,48.05
2022-09-06T14:11:48.562Z,47.96
2022-09-06T14:14:19.029Z,48.00
2022-09-06T14:16:51.405Z,48.33
2022-09-06T14:19:20.115Z,48.11
2022-09-06T14:21:48.702Z,48.29
2022-09-06T14:24:17.646Z,48.41
2022-09-06T14:26:46.085Z,48.18
2022-09-06T14:29:14.766Z,48.40
2022-09-06T14:31:43.404Z,48.18
2022-09-06T14:34:12.434Z,48.26
2022-09-06T14:36:41.449Z,48.49
2022-09-06T14:39:09.925Z,48.47
2022-09-06T14:41:38.506Z,48.26
2022-09-06T14:44:07.024Z,48.27
2022-09-06T14:46:35.569Z,48.51
2022-09-06T14:49:09.444Z,48.85
2022-09-06T14:51:39.564Z,48.55
2022-09-06T14:54:11.880Z,48.91
2022-09-06T14:56:42.791Z,48.88
2022-09-06T14:59:11.970Z,49.03
2022-09-06T15:01:42.201Z,48.99
2022-09-06T15:04:12.827Z,49.17
2022-09-06T15:06:45.871Z,49.11
2022-09-06T15:09:18.565Z,49.13
2022-09-06T15:11:49.782Z,49.40
2022-09-06T15:14:26.928Z,49.30
2022-09-06T15:17:00.939Z,49.05
2022-09-06T15:19:31.548Z,49.17
2022-09-06T15:22:00.170Z,49.06
2022-09-06T15:24:29.694Z,49.29
2022-09-06T15:26:58.670Z,49.08
2022-09-06T15:29:28.527Z,49.23
2022-09-06T15:31:58.124Z,49.40
2022-09-06T15:34:27.890Z,49.32
2022-09-06T15:36:57.611Z,49.21
2022-09-06T15:39:26.119Z,48.91
2022-09-06T15:41:54.605Z,48.81
2022-09-06T15:44:23.249Z,48.87
2022-09-06T15:46:58.644Z,48.54
2022-09-06T15:49:33.314Z,48.54
2022-09-06T15:52:03.990Z,48.95
2022-09-06T15:54:50.647Z,48.35
2022-09-06T15:57:19.550Z,48.03
2022-09-06T15:59:48.986Z,47.85
2022-09-06T16:02:17.884Z,47.39
2022-09-06T16:04:47.585Z,46.87
2022-09-06T16:07:16.329Z,46.45
2022-09-06T16:09:44.861Z,46.13
2022-09-06T16:12:13.329Z,46.04
2022-09-06T16:14:41.805Z,45.89
2022-09-06T16:17:10.447Z,46.00
2022-09-06T16:19:39.085Z,45.75
2022-09-06T16:22:07.683Z,45.69
2022-09-06T16:24:36.359Z,44.72
2022-09-06T16:27:05.005Z,44.61
2022-09-06T16:29:33.585Z,44.37
2022-09-06T16:32:02.135Z,44.02
2022-09-06T16:34:30.689Z,43.42
2022-09-06T16:36:59.370Z,43.08
2022-09-06T16:39:28.201Z,42.78
2022-09-06T16:41:56.824Z,42.57
2022-09-06T16:44:25.660Z,42.83
2022-09-06T16:46:54.955Z,42.01
2022-09-06T16:49:24.525Z,41.92
2022-09-06T16:51:53.444Z,41.77
2022-09-06T16:54:22.626Z,41.58
2022-09-06T16:56:51.109Z,40.99
2022-09-06T16:59:20.053Z,40.81
2022-09-06T17:01:48.719Z,40.58
2022-09-06T17:04:17.612Z,40.04
2022-09-06T17:06:46.662Z,40.13
2022-09-06T17:09:19.729Z,39.50
2022-09-06T17:11:52.328Z,39.51
2022-09-06T17:14:20.830Z,38.92
2022-09-06T17:17:08.188Z,38.24
2022-09-06T17:19:42.450Z,38.51
2022-09-06T17:22:14.245Z,38.37
2022-09-06T17:24:43.854Z,38.35
2022-09-06T17:27:12.414Z,38.29
2022-09-06T17:29:41.131Z,38.60
2022-09-06T17:32:12.825Z,38.43
2022-09-06T17:34:42.269Z,38.61
2022-09-06T17:37:10.925Z,38.66
2022-09-06T17:39:40.043Z,38.50
2022-09-06T17:42:08.770Z,38.52
2022-09-06T17:44:37.489Z,38.55
2022-09-06T17:47:12.999Z,38.57
2022-09-06T17:49:43.751Z,38.30
2022-09-06T17:52:12.934Z,38.07
2022-09-06T17:54:41.671Z,37.86
2022-09-06T17:57:10.292Z,37.27
2022-09-06T17:59:39.581Z,37.24
2022-09-06T18:02:08.689Z,36.73
2022-09-06T18:04:37.884Z,36.38
2022-09-06T18:07:06.449Z,35.93
2022-09-06T18:09:34.925Z,34.72
2022-09-06T18:12:03.440Z,34.26
2022-09-06T18:14:31.990Z,34.08
2022-09-06T18:17:00.841Z,34.08
2022-09-06T18:19:29.370Z,34.10
2022-09-06T18:21:58.765Z,33.35
2022-09-06T18:24:27.364Z,33.35
2022-09-06T18:26:56.504Z,33.08
2022-09-06T18:29:25.129Z,32.78
2022-09-06T18:31:55.178Z,32.53
2022-09-06T18:34:24.041Z,32.29
2022-09-06T18:36:52.691Z,31.25
2022-09-06T18:39:21.657Z,31.36
2022-09-06T18:42:02.294Z,31.27
2022-09-06T18:44:33.507Z,30.36
2022-09-06T18:47:03.281Z,29.73
2022-09-06T18:49:32.014Z,29.52
2022-09-06T18:52:01.250Z,29.43
2022-09-06T18:54:30.355Z,28.88
2022-09-06T18:56:59.424Z,28.46
2022-09-06T18:59:28.005Z,28.75
2022-09-06T19:01:56.770Z,28.20
2022-09-06T19:04:25.384Z,27.80
2022-09-06T19:06:54.289Z,27.08
2022-09-06T19:09:23.988Z,27.04
2022-09-06T19:11:54.044Z,26.83
2022-09-06T19:14:23.267Z,26.54
2022-09-06T19:16:54.951Z,26.90
2022-09-06T19:19:25.261Z,26.03
2022-09-06T19:21:54.714Z,26.19
2022-09-06T19:24:25.796Z,25.95
2022-09-06T19:26:54.594Z,25.93
2022-09-06T19:29:24.354Z,25.95
2022-09-06T19:31:54.280Z,26.18
2022-09-06T19:34:23.267Z,26.58
2022-09-06T19:36:56.209Z,26.18
2022-09-06T19:39:33.488Z,26.10
2022-09-06T19:42:05.406Z,26.08
2022-09-06T19:44:34.740Z,25.73
2022-09-06T19:47:07.738Z,25.45
2022-09-06T19:49:36.970Z,25.14
2022-09-06T19:52:10.543Z,25.12
2022-09-06T19:54:40.375Z,24.97
2022-09-06T19:57:09.130Z,24.90
2022-09-06T19:59:37.999Z,25.16
2022-09-06T20:02:06.823Z,23.42
2022-09-06T20:04:35.581Z,23.92
2022-09-06T20:07:04.399Z,23.88
2022-09-06T20:09:33.155Z,23.67
2022-09-06T20:12:01.955Z,23.29
2022-09-06T20:14:30.655Z,22.73
2022-09-06T20:17:16.492Z,22.64
2022-09-06T20:19:51.748Z,22.08
2022-09-06T20:22:20.504Z,21.87
2022-09-06T20:24:50.260Z,21.66
2022-09-06T20:27:19.675Z,21.61
2022-09-06T20:29:48.515Z,20.92
2022-09-06T20:32:17.245Z,20.95
2022-09-06T20:34:46.455Z,20.79
2022-09-06T20:37:15.349Z,20.76
2022-09-06T20:39:44.102Z,20.37
2022-09-06T20:42:13.596Z,20.16
2022-09-06T20:44:42.564Z,19.30
2022-09-06T20:47:12.509Z,19.37
2022-09-06T20:49:41.139Z,18.66
2022-09-06T20:52:09.680Z,18.84
2022-09-06T20:54:38.509Z,18.47
2022-09-06T20:57:07.435Z,18.17
2022-09-06T20:59:36.234Z,17.52
2022-09-06T21:02:05.241Z,17.47
2022-09-06T21:04:36.909Z,16.52
2022-09-06T21:07:05.879Z,16.76
2022-09-06T21:09:34.415Z,16.73
2022-09-06T21:12:05.671Z,16.58
2022-09-06T21:14:34.610Z,16.66
2022-09-06T21:17:03.695Z,16.16
2022-09-06T21:19:32.637Z,16.16
2022-09-06T21:22:02.186Z,15.41
2022-09-06T21:24:31.489Z,15.52
2022-09-06T21:30:48.364Z,15.00
2022-09-06T21:33:17.758Z,15.04
2022-09-06T21:35:46.880Z,14.89
2022-09-06T21:38:16.669Z,14.81
2022-09-06T21:40:45.975Z,14.99
2022-09-06T21:43:15.765Z,14.91
2022-09-06T21:45:45.494Z,14.96
2022-09-06T21:48:19.514Z,14.95
2022-09-06T21:50:52.585Z,14.84
2022-09-06T21:53:24.280Z,14.93
2022-09-06T21:55:53.525Z,15.01
2022-09-06T21:58:22.978Z,14.78
2022-09-06T22:00:57.913Z,14.69
2022-09-06T22:03:28.785Z,14.76
2022-09-06T22:05:59.350Z,14.43
2022-09-06T22:08:28.905Z,14.20
2022-09-06T22:11:08.646Z,14.37
2022-09-06T22:13:38.385Z,14.53
2022-09-06T22:16:08.455Z,14.24
2022-09-06T22:18:37.750Z,14.52
2022-09-06T22:21:13.270Z,14.10
2022-09-06T22:23:43.325Z,13.67
2022-09-06T22:26:14.629Z,13.80
2022-09-06T22:28:44.318Z,14.09
2022-09-06T22:31:13.756Z,13.87
2022-09-06T22:33:42.894Z,13.98
2022-09-06T22:36:12.634Z,14.04
2022-09-06T22:38:42.244Z,14.16
2022-09-06T22:41:11.992Z,13.93
2022-09-06T22:43:41.429Z,13.88
2022-09-06T22:46:14.157Z,14.29
2022-09-06T22:48:43.517Z,14.07
2022-09-06T22:51:13.273Z,14.55
2022-09-06T22:53:42.719Z,14.82
2022-09-06T22:56:11.883Z,14.73
2022-09-06T22:58:41.099Z,14.98
2022-09-06T23:01:18.273Z,15.05
2022-09-06T23:03:50.922Z,15.22
2022-09-06T23:06:20.299Z,15.29
2022-09-06T23:08:49.653Z,15.91
2022-09-06T23:11:20.736Z,15.88
2022-09-06T23:13:50.058Z,15.92
2022-09-06T23:16:21.169Z,15.91
2022-09-06T23:18:51.360Z,16.07
2022-09-06T23:21:23.563Z,16.47
2022-09-06T23:23:54.541Z,16.66
2022-09-06T23:26:26.930Z,16.55
2022-09-06T23:28:59.014Z,17.18
2022-09-06T23:31:30.733Z,17.38
2022-09-06T23:34:01.599Z,17.20
2022-09-06T23:36:31.185Z,17.38
2022-09-06T23:39:01.099Z,17.78
2022-09-06T23:41:30.704Z,17.98
2022-09-06T23:44:00.141Z,18.82
2022-09-06T23:46:29.768Z,18.71
2022-09-06T23:48:59.151Z,19.09
2022-09-06T23:51:28.548Z,19.00
2022-09-06T23:53:58.064Z,19.10
2022-09-06T23:56:27.590Z,19.38
2022-09-06T23:58:57.099Z,19.48
